Argyle, Illinois
Current Conditions -  °F | °C
As of 2:54 PM on Thursday 23 Oct 2014 (Local Time) from KRFD Reporting Station
Overcast Overcast  
Wind Chill: 14°   Ceiling: 4600
Heat Index: 14°   Visibility: 10mi
Dew Point:   Wind: 16mph
Humidity: 56%   Direction: 190°S
Pressure: 30.09"   Gusts: NA
Location:  42.3911°N, 88.9094°W
Report Text: KRFD 231954Z 19014KT 10SM BKN046 BKN095 BKN120 OVC180 14/06 A3009 RMK AO2 SLP192 T01440056
Loading
Personal Weather Stations






























Interactive Weather Map
Tropical Storm Tracking
New forecast layout! Learn more

10-Day Weather Forecast

Advertisements
Track Severe Weather on mobile